Time;durP1;ratioP1;P1;durP2;ratioP2;P2;SDS_P1;SDS_P2;PMS_P1;PMS_P2;Temp;Humidity;BMP_temperature;BMP_pressure;BME280_temperature;BME280_humidity;BME280_pressure;Samples;Min_cycle;Max_cycle;Signal;HPM_P1;HPM_P2
2022/10/01 00:00:13;;;;;;;9.40;6.90;;;;;;;;;;5047509;28;20124;-71
2022/10/01 00:02:39;;;;;;;9.77;6.90;;;;;;;;;;5046725;28;20119;-72
2022/10/01 00:05:06;;;;;;;10.30;7.03;;;;;;;;;;5050235;28;20476;-71
2022/10/01 00:07:39;;;;;;;11.88;6.57;;;;;;;;;;5049727;28;20056;-71
2022/10/01 00:10:06;;;;;;;11.68;7.25;;;;;;;;;;5047660;28;20037;-71
2022/10/01 00:12:32;;;;;;;13.52;7.25;;;;;;;;;;5050868;28;20025;-71
2022/10/01 00:14:58;;;;;;;8.98;7.85;;;;;;;;;;5052037;28;20036;-70
2022/10/01 00:17:24;;;;;;;9.02;8.13;;;;;;;;;;5050917;28;20041;-71
2022/10/01 00:19:50;;;;;;;11.15;7.45;;;;;;;;;;5046415;28;20029;-71
2022/10/01 00:22:17;;;;;;;14.43;8.85;;;;;;;;;;5050407;28;20488;-71
2022/10/01 00:24:46;;;;;;;11.13;9.00;;;;;;;;;;5050125;28;20040;-70
2022/10/01 00:27:12;;;;;;;13.60;8.20;;;;;;;;;;5082946;28;20029;-70
2022/10/01 00:29:38;;;;;;;10.43;6.88;;;;;;;;;;5052029;28;20436;-71
2022/10/01 00:32:04;;;;;;;10.30;7.40;;;;;;;;;;5048096;28;20033;-71
2022/10/01 00:34:30;;;;;;;9.82;6.70;;;;;;;;;;5050491;28;20055;-74
2022/10/01 00:36:56;;;;;;;10.10;8.25;;;;;;;;;;5046066;28;20551;-71
2022/10/01 00:39:22;;;;;;;9.38;8.43;;;;;;;;;;5048209;28;20154;-71
2022/10/01 00:41:51;;;;;;;12.27;8.68;;;;;;;;;;5046619;28;20561;-71
2022/10/01 00:44:34;;;;;;;10.57;8.13;;;;;;;;;;5049969;28;20116;-71
2022/10/01 00:47:06;;;;;;;9.20;8.02;;;;;;;;;;5049722;28;20431;-72
2022/10/01 00:49:33;;;;;;;10.13;8.50;;;;;;;;;;5033763;28;20033;-71
2022/10/01 00:52:05;;;;;;;10.23;8.32;;;;;;;;;;5046960;28;20048;-72
2022/10/01 00:54:36;;;;;;;11.75;8.75;;;;;;;;;;5046125;28;20033;-71
2022/10/01 00:57:03;;;;;;;10.20;9.00;;;;;;;;;;5048060;28;20020;-70
2022/10/01 00:59:30;;;;;;;13.00;8.40;;;;;;;;;;5049210;28;20040;-72
2022/10/01 01:04:32;;;;;;;17.00;9.32;;;;;;;;;;5506388;22;20147;-72
2022/10/01 01:07:00;;;;;;;19.70;9.57;;;;;;;;;;5054348;28;20241;-73
2022/10/01 01:09:42;;;;;;;14.00;8.20;;;;;;;;;;5063530;28;20037;-72
2022/10/01 01:12:11;;;;;;;11.07;7.87;;;;;;;;;;5058863;28;20392;-72
2022/10/01 01:14:46;;;;;;;8.95;7.60;;;;;;;;;;5065193;28;20813;-72
2022/10/01 01:17:18;;;;;;;11.65;8.48;;;;;;;;;;5062452;28;20490;-71
2022/10/01 01:20:03;;;;;;;9.40;8.10;;;;;;;;;;5057575;28;20803;-72
2022/10/01 01:22:31;;;;;;;12.65;8.70;;;;;;;;;;5067774;28;20038;-72
2022/10/01 01:25:00;;;;;;;9.05;8.07;;;;;;;;;;5070904;28;20037;-72
2022/10/01 01:27:50;;;;;;;19.02;8.93;;;10.70;99.90;;;;;;5069108;28;20024;-73
2022/10/01 01:30:16;;;;;;;11.98;9.18;;;;;;;;;;5054699;28;20470;-73
2022/10/01 01:32:54;;;;;;;12.02;8.43;;;;;;;;;;5067863;28;20424;-73
2022/10/01 01:35:30;;;;;;;10.95;8.27;;;;;;;;;;5070103;28;20024;-73
2022/10/01 01:38:00;;;;;;;11.57;8.77;;;;;;;;;;5069929;28;20103;-72
2022/10/01 01:40:27;;;;;;;9.57;8.32;;;;;;;;;;5067899;28;20032;-74
2022/10/01 01:42:54;;;;;;;11.55;8.77;;;;;;;;;;5067496;28;20051;-72
2022/10/01 01:45:23;;;;;;;12.52;8.05;;;;;;;;;;5067031;28;20028;-72
2022/10/01 01:47:50;;;;;;;9.93;7.40;;;;;;;;;;5052848;28;20029;-72
2022/10/01 01:50:17;;;;;;;10.75;7.22;;;;;;;;;;5061748;28;20036;-72
2022/10/01 01:52:43;;;;;;;9.15;8.13;;;;;;;;;;5057573;28;20068;-72
2022/10/01 01:55:10;;;;;;;9.75;7.68;;;;;;;;;;5069174;28;20520;-72
2022/10/01 01:57:37;;;;;;;8.40;7.45;;;;;;;;;;5068253;28;20039;-72
2022/10/01 02:00:03;;;;;;;10.73;7.78;;;;;;;;;;5061184;28;20075;-71
2022/10/01 02:02:32;;;;;;;9.45;7.13;;;;;;;;;;5068533;28;20045;-72
2022/10/01 02:05:01;;;;;;;10.20;6.97;;;;;;;;;;5068877;28;20044;-72
2022/10/01 02:07:41;;;;;;;8.57;7.30;;;;;;;;;;5061083;28;20017;-71
2022/10/01 02:10:17;;;;;;;6.57;5.80;;;;;;;;;;5053565;28;20032;-72
2022/10/01 02:13:00;;;;;;;7.82;6.90;;;;;;;;;;5065849;28;20040;-72
2022/10/01 02:15:26;;;;;;;7.70;6.40;;;;;;;;;;5066821;28;20567;-71
2022/10/01 02:18:01;;;;;;;6.80;5.95;;;;;;;;;;5069604;28;20146;-74
2022/10/01 02:20:29;;;;;;;9.27;6.25;;;;;;;;;;5070390;28;20036;-72
2022/10/01 02:23:00;;;;;;;6.75;5.70;;;;;;;;;;5068975;28;20032;-72
2022/10/01 02:25:29;;;;;;;5.30;4.80;;;;;;;;;;5065534;28;20063;-72
2022/10/01 02:27:59;;;;;;;7.22;5.63;;;;;;;;;;5069254;28;20737;-72
2022/10/01 02:30:27;;;;;;;6.55;4.55;;;;;;;;;;5057457;28;20439;-72
2022/10/01 02:32:55;;;;;;;5.15;4.65;;;;;;;;;;5060963;28;20082;-71
2022/10/01 02:35:22;;;;;;;4.60;4.20;;;;;;;;;;5065942;28;20525;-70
2022/10/01 02:37:50;;;;;;;4.80;4.30;;;;;;;;;;5063829;28;20457;-71
2022/10/01 02:40:19;;;;;;;4.13;3.75;;;;;;;;;;5067586;28;20036;-72
2022/10/01 02:42:46;;;;;;;5.20;4.47;;;;;;;;;;5053695;28;20527;-72
2022/10/01 02:45:14;;;;;;;6.00;3.90;;;;;;;;;;5059326;28;20028;-72
2022/10/01 02:47:42;;;;;;;4.50;4.00;;;;;;;;;;5068764;28;20036;-72
2022/10/01 02:50:08;;;;;;;4.30;3.90;;;;;;;;;;5064311;28;20427;-72
2022/10/01 02:52:40;;;;;;;5.28;3.95;;;;;;;;;;5064893;28;20116;-72
2022/10/01 02:55:14;;;;;;;4.80;4.32;;;;;;;;;;5064813;28;20466;-72
2022/10/01 02:57:41;;;;;;;4.22;3.70;;;;;;;;;;5068644;28;20043;-72
2022/10/01 03:00:12;;;;;;;5.03;3.30;;;;;;;;;;5073549;28;20032;-72
2022/10/01 03:02:38;;;;;;;3.60;3.20;;;;;;;;;;5064047;28;20388;-71
2022/10/01 03:05:04;;;;;;;3.42;3.00;;;;;;;;;;5073585;28;20040;-72
2022/10/01 03:07:34;;;;;;;4.55;3.45;;;;;;;;;;5060566;28;20036;-74
2022/10/01 03:10:00;;;;;;;4.15;3.50;;;;;;;;;;5071531;28;20033;-72
2022/10/01 03:12:26;;;;;;;3.58;2.45;;;;;;;;;;5070907;28;20031;-73
2022/10/01 03:14:52;;;;;;;3.05;2.65;;;;;;;;;;5072790;28;20036;-73
2022/10/01 03:17:18;;;;;;;3.33;2.65;;;;;;;;;;5067310;28;20028;-72
2022/10/01 03:19:45;;;;;;;2.42;2.22;;;;;;;;;;5070121;28;20494;-72
2022/10/01 03:22:12;;;;;;;2.42;2.22;;;;;;;;;;5071469;28;20103;-73
2022/10/01 03:24:38;;;;;;;2.95;2.03;;;;;;;;;;5069690;28;20044;-72
2022/10/01 03:27:04;;;;;;;2.40;2.17;;;;;;;;;;5071932;28;20029;-72
2022/10/01 03:29:30;;;;;;;5.75;2.30;;;;;;;;;;5058888;28;20036;-72
2022/10/01 03:31:56;;;;;;;2.35;1.90;;;;;;;;;;5068380;28;20037;-71
2022/10/01 03:34:22;;;;;;;2.47;2.15;;;;;;;;;;5068664;28;20037;-72
2022/10/01 03:36:50;;;;;;;2.20;2.00;;;;;;;;;;5069648;28;20362;-74
2022/10/01 03:39:16;;;;;;;3.17;2.88;;;;;;;;;;5058639;28;20024;-72
2022/10/01 03:41:43;;;;;;;2.35;2.08;;;;;;;;;;5068217;28;20353;-73
2022/10/01 03:44:09;;;;;;;2.40;2.20;;;;;;;;;;5069501;28;20524;-72
2022/10/01 03:46:35;;;;;;;2.38;2.00;;;;;;;;;;5070067;28;20028;-72
2022/10/01 03:49:01;;;;;;;2.20;1.90;;;;;;;;;;5072461;28;20047;-73
2022/10/01 03:51:28;;;;;;;2.65;2.25;;;;;;;;;;5069166;28;20049;-73
2022/10/01 03:53:54;;;;;;;6.18;2.85;;;;;;;;;;5066845;28;20029;-73
2022/10/01 03:56:20;;;;;;;3.03;2.15;;;;;;;;;;5068298;28;20472;-72
2022/10/01 03:58:46;;;;;;;2.15;1.95;;;;;;;;;;5070909;28;20036;-73
2022/10/01 04:01:12;;;;;;;2.30;2.10;;;;;;;;;;5063117;28;20063;-73
2022/10/01 04:03:39;;;;;;;2.47;2.03;;;;;;;;;;5066947;28;20036;-73
2022/10/01 04:06:05;;;;;;;2.47;2.10;;;;;;;;;;5071271;28;20495;-72
2022/10/01 04:08:31;;;;;;;2.33;2.13;;;;;;;;;;5068502;28;20035;-72
2022/10/01 04:10:57;;;;;;;2.83;2.10;;;;;;;;;;5070627;28;20044;-72
2022/10/01 04:13:23;;;;;;;4.43;2.50;;;;;;;;;;5067913;28;20060;-73
2022/10/01 04:15:49;;;;;;;2.53;2.15;;;;;;;;;;5061538;28;20479;-73
2022/10/01 04:18:16;;;;;;;2.20;2.00;;;;;;;;;;5065421;28;20033;-72
2022/10/01 04:20:42;;;;;;;3.20;2.88;;;;;;;;;;5052131;28;20112;-74
2022/10/01 04:23:08;;;;;;;3.38;2.30;;;;;;;;;;5065675;28;20476;-73
2022/10/01 04:25:34;;;;;;;3.55;2.90;;;;;;;;;;5067347;28;20047;-73
2022/10/01 04:28:04;;;;;;;3.13;2.80;;;;;;;;;;5060293;28;20051;-73
2022/10/01 04:30:31;;;;;;;3.80;3.45;;;;;;;;;;5060897;28;20392;-73
2022/10/01 04:32:57;;;;;;;3.53;3.03;;;;;;;;;;5053872;28;20098;-73
2022/10/01 04:35:23;;;;;;;3.63;3.03;;;;;;;;;;5038776;28;20436;-75
2022/10/01 04:38:02;;;;;;;3.40;2.78;;;;;;;;;;5068041;28;20068;-74
2022/10/01 04:40:29;;;;;;;3.03;2.67;;;;;;;;;;5070430;28;20380;-74
2022/10/01 04:42:55;;;;;;;5.20;3.20;;;;;;;;;;5064301;28;20425;-72
2022/10/01 04:45:21;;;;;;;3.22;2.90;;;;;;;;;;5063589;28;20103;-73
2022/10/01 04:47:49;;;;;;;3.17;2.88;;;;;;;;;;5068741;28;20387;-72
2022/10/01 04:50:15;;;;;;;4.38;3.47;;;;;;;;;;5070684;28;20380;-73
2022/10/01 04:52:41;;;;;;;3.72;3.35;;;;;;;;;;5064922;28;20369;-72
2022/10/01 04:55:07;;;;;;;4.40;3.60;;;;;;;;;;5071429;28;20421;-73
2022/10/01 04:57:34;;;;;;;4.90;3.67;;;;;;;;;;5067777;28;20052;-73
2022/10/01 05:00:00;;;;;;;4.53;3.53;;;;;;;;;;5067771;28;20055;-73
2022/10/01 05:02:28;;;;;;;5.88;4.22;;;;;;;;;;5060903;28;20073;-75
2022/10/01 05:04:54;;;;;;;7.03;4.53;;;;;;;;;;5067586;28;20052;-75
2022/10/01 05:07:21;;;;;;;4.68;4.15;;;;;;;;;;5067901;28;20380;-72
2022/10/01 05:09:47;;;;;;;8.32;4.95;;;;;;;;;;5069243;28;20078;-72
2022/10/01 05:12:13;;;;;;;6.00;4.20;;;;;;;;;;5069166;28;20064;-72
2022/10/01 05:14:39;;;;;;;9.50;5.05;;;;;;;;;;5064137;28;20033;-72
2022/10/01 05:17:06;;;;;;;5.18;4.20;;;;;;;;;;5067958;28;20029;-72
2022/10/01 05:19:32;;;;;;;6.25;4.60;;;;;;;;;;5067821;28;20032;-72
2022/10/01 05:21:58;;;;;;;6.82;5.03;;;;;;;;;;5060218;28;20040;-73
2022/10/01 05:24:24;;;;;;;7.78;5.13;;;;;;;;;;5052260;28;20828;-71
2022/10/01 05:26:52;;;;;;;6.13;5.50;;;;;;;;;;5070111;28;20388;-74
2022/10/01 05:29:18;;;;;;;13.07;6.00;;;;;;;;;;5062247;28;20494;-72
2022/10/01 05:31:45;;;;;;;11.25;7.03;;;;;;;;;;5067882;28;20123;-71
2022/10/01 05:34:11;;;;;;;9.38;5.63;;;;;;;;;;5070064;28;20040;-71
2022/10/01 05:36:37;;;;;;;8.52;5.90;;;;;;;;;;5067852;28;20032;-71
2022/10/01 05:39:04;;;;;;;9.65;6.78;;;;;;;;;;5066048;28;20181;-72
2022/10/01 05:41:30;;;;;;;9.02;7.05;;;;;;;;;;5055281;28;20081;-72
2022/10/01 05:43:56;;;;;;;14.43;7.03;;;;;;;;;;5064472;28;20025;-71
2022/10/01 05:46:22;;;;;;;13.23;7.22;;;;;;;;;;5062109;28;20432;-71
2022/10/01 05:48:50;;;;;;;9.88;6.35;;;;;;;;;;5068427;28;20081;-71
2022/10/01 05:51:16;;;;;;;8.70;6.65;;;;;;;;;;5062823;28;20031;-73
2022/10/01 05:53:42;;;;;;;14.32;7.63;;;;;;;;;;5066706;28;20028;-75
2022/10/01 05:56:10;;;;;;;9.48;7.03;;;;;;;;;;5065211;28;20045;-73
2022/10/01 05:58:36;;;;;;;12.43;7.30;;;;;;;;;;5068155;28;20029;-72
2022/10/01 06:01:03;;;;;;;10.40;6.97;;;;;;;;;;5063712;28;20051;-72
2022/10/01 06:03:29;;;;;;;12.15;6.50;;;;;;;;;;5068367;28;20081;-72
2022/10/01 06:05:56;;;;;;;13.55;7.75;;;;;;;;;;5065646;28;20070;-72
2022/10/01 06:08:22;;;;;;;12.13;7.05;;;;;;;;;;5069082;28;20024;-72
2022/10/01 06:10:48;;;;;;;19.17;7.57;;;;;;;;;;5066487;28;20028;-72
2022/10/01 06:13:16;;;;;;;12.30;6.13;;;;;;;;;;5069626;28;20037;-72
2022/10/01 06:15:43;;;;;;;11.75;5.30;;;;;;;;;;5066631;28;20088;-76
2022/10/01 06:18:11;;;;;;;13.27;5.70;;;;;;;;;;5068592;28;20029;-73
2022/10/01 06:20:37;;;;;;;15.43;6.28;;;;;;;;;;5068823;28;20040;-72
2022/10/01 06:23:10;;;;;;;14.43;6.25;;;;;;;;;;5072684;28;20024;-72
2022/10/01 06:25:37;;;;;;;11.02;5.43;;;;;;;;;;5071446;28;20029;-71
2022/10/01 06:28:04;;;;;;;12.20;5.97;;;;;;;;;;5072808;28;20052;-72
2022/10/01 06:30:31;;;;;;;14.90;6.05;;;;;;;;;;5063390;28;20035;-72
2022/10/01 06:33:03;;;;;;;14.25;6.53;;;;;;;;;;5060299;28;20106;-73
2022/10/01 06:35:30;;;;;;;11.95;4.60;;;;;;;;;;5066538;28;20461;-73
2022/10/01 06:37:56;;;;;;;18.15;4.57;;;;;;;;;;5051447;28;20044;-72
2022/10/01 06:40:22;;;;;;;12.15;3.58;;;;;;;;;;5058709;28;20099;-72
2022/10/01 06:42:48;;;;;;;16.75;4.00;;;;;;;;;;5070113;28;20020;-71
2022/10/01 06:45:15;;;;;;;16.83;3.28;;;;;;;;;;5069516;28;20464;-72
2022/10/01 06:47:41;;;;;;;19.77;3.13;;;;;;;;;;5043775;28;20379;-72
2022/10/01 06:50:07;;;;;;;17.15;3.08;;;;;;;;;;5065660;28;20036;-71
2022/10/01 06:52:48;;;;;;;15.38;3.08;;;;;;;;;;5071272;28;20028;-72
2022/10/01 06:55:15;;;;;;;9.70;2.72;;;;;;;;;;5066855;28;20067;-72
2022/10/01 06:57:41;;;;;;;15.25;3.53;;;;;;;;;;5066085;28;20040;-72
2022/10/01 07:00:07;;;;;;;11.43;2.83;;;;;;;;;;5061204;28;20041;-72
2022/10/01 07:02:33;;;;;;;15.52;2.97;;;;;;;;;;5064345;28;20025;-72
2022/10/01 07:05:00;;;;;;;17.00;2.83;;;;;;;;;;5052870;28;20057;-71
2022/10/01 07:07:30;;;;;;;19.75;4.43;;;;;;;;;;5060924;28;20107;-71
2022/10/01 07:09:56;;;;;;;19.88;4.82;;;;;;;;;;5072167;28;20032;-71
2022/10/01 07:12:22;;;;;;;10.55;2.83;;;;;;;;;;5063892;28;20024;-72
2022/10/01 07:14:48;;;;;;;10.73;2.60;;;;;;;;;;5065803;28;20093;-74
2022/10/01 07:17:15;;;;;;;9.50;2.28;;;;;;;;;;5060229;28;20028;-71
2022/10/01 07:19:41;;;;;;;12.73;2.00;;;;;;;;;;5068562;28;20028;-71
2022/10/01 07:22:07;;;;;;;13.27;4.40;;;;;;;;;;5070003;28;20044;-72
2022/10/01 07:24:33;;;;;;;10.35;1.92;;;;;;;;;;5067944;28;20070;-72
2022/10/01 07:26:59;;;;;;;13.43;2.28;;;;;;;;;;5064886;28;20040;-71
2022/10/01 07:29:26;;;;;;;9.00;1.60;;;;;;;;;;5065120;28;20036;-71
2022/10/01 07:31:56;;;;;;;10.63;2.17;;;;;;;;;;5067296;28;21590;-73
2022/10/01 07:34:24;;;;;;;10.55;1.95;;;;;;;;;;5071378;28;20024;-72
2022/10/01 07:36:50;;;;;;;8.82;1.88;;;;;;;;;;5038221;28;20032;-72
2022/10/01 07:39:16;;;;;;;9.50;1.60;;;;;;;;;;5064385;28;20078;-73
2022/10/01 07:41:42;;;;;;;11.98;3.33;;;;;;;;;;5069761;28;20098;-73
2022/10/01 07:44:10;;;;;;;6.00;1.73;;;;;;;;;;5061885;28;20025;-73
2022/10/01 07:46:37;;;;;;;10.02;2.33;;;;;;;;;;5061514;28;20045;-73
2022/10/01 07:49:03;;;;;;;13.50;2.03;;;;;;;;;;5071405;28;20429;-73
2022/10/01 07:51:29;;;;;;;11.77;2.00;;;;;;;;;;5067556;28;20097;-69
2022/10/01 07:53:55;;;;;;;12.93;3.03;;;;;;;;;;5064107;28;20047;-72
2022/10/01 07:56:21;;;;;;;13.60;3.63;;;;;;;;;;5061750;28;20032;-72
2022/10/01 07:58:47;;;;;;;20.48;3.40;;;;;;;;;;5071755;28;20349;-72
2022/10/01 08:01:14;;;;;;;12.93;2.80;;;;;;;;;;5067121;28;20037;-72
2022/10/01 08:03:40;;;;;;;21.80;3.42;;;;;;;;;;5070654;28;20033;-72
2022/10/01 08:06:06;;;;;;;20.23;2.78;;;;;;;;;;5068730;28;20045;-72
2022/10/01 08:08:32;;;;;;;24.45;4.68;;;;;;;;;;5072167;28;20040;-72
2022/10/01 08:11:01;;;;;;;15.15;3.58;;;;;;;;;;5069564;28;20348;-72
2022/10/01 08:13:27;;;;;;;15.63;3.28;;;;;;;;;;5070610;28;20035;-71
2022/10/01 08:15:53;;;;;;;21.55;3.90;;;;;;;;;;5064271;28;20033;-72
2022/10/01 08:18:20;;;;;;;22.75;3.40;;;;;;;;;;5071526;28;20510;-72
2022/10/01 08:20:46;;;;;;;18.27;4.50;;;;;;;;;;5062819;28;20648;-72
2022/10/01 08:23:13;;;;;;;21.70;4.53;;;;;;;;;;5070152;28;20020;-72
2022/10/01 08:25:40;;;;;;;23.60;4.60;;;;;;;;;;5054463;28;20041;-72
2022/10/01 08:28:06;;;;;;;19.38;3.22;;;;;;;;;;5061266;28;20551;-72
2022/10/01 08:30:33;;;;;;;20.52;3.90;;;;;;;;;;5063935;28;20098;-73
2022/10/01 08:33:00;;;;;;;21.58;3.50;;;;;;;;;;5064796;28;20044;-72
2022/10/01 08:35:27;;;;;;;26.88;3.42;;;;;;;;;;5066954;28;20033;-73
2022/10/01 08:37:55;;;;;;;17.25;4.82;;;;;;;;;;5068045;28;20036;-73
2022/10/01 08:40:21;;;;;;;23.60;4.10;;;;;;;;;;5068327;28;20197;-70
2022/10/01 08:42:51;;;;;;;13.68;3.10;;;;;;;;;;5060613;28;20036;-71
2022/10/01 08:45:21;;;;;;;22.58;3.22;;;;;;;;;;5057546;28;20025;-72
2022/10/01 08:47:51;;;;;;;20.40;3.40;;;;;;;;;;5058422;28;20028;-72
2022/10/01 08:50:30;;;;;;;20.60;3.50;;;;;;;;;;5059036;28;20037;-73
2022/10/01 08:53:01;;;;;;;30.23;4.70;;;;;;;;;;5058873;28;20380;-73
2022/10/01 08:55:30;;;;;;;55.85;4.68;;;;;;;;;;5055956;28;20062;-73
2022/10/01 08:57:58;;;;;;;28.55;5.28;;;;;;;;;;5055367;28;20151;-72
2022/10/01 09:00:24;;;;;;;29.20;4.30;;;;;;;;;;5056022;28;20468;-72
2022/10/01 09:02:51;;;;;;;18.48;2.60;;;;;;;;;;5054482;28;20037;-72
2022/10/01 09:05:24;;;;;;;13.68;2.92;;;;;;;;;;5056130;28;20045;-72
2022/10/01 09:07:50;;;;;;;;;;;;;;;;;;5054030;28;20060;-72
2022/10/01 09:10:34;;;;;;;21.77;3.88;;;;;;;;;;5057302;28;19952;-72
2022/10/01 09:13:17;;;;;;;20.75;4.38;;;;;;;;;;5053690;28;20098;-74
2022/10/01 09:16:15;;;;;;;13.43;3.63;;;;;;;;;;5055788;28;20035;-74
2022/10/01 09:19:00;;;;;;;13.20;2.38;;;;;;;;;;5032135;28;20045;-74
2022/10/01 09:21:32;;;;;;;9.52;2.45;;;;;;;;;;5060096;28;20063;-75
2022/10/01 09:23:58;;;;;;;13.20;3.20;;;;;;;;;;5056816;28;20040;-72
2022/10/01 09:26:24;;;;;;;11.35;2.30;;;;;;;;;;5058818;28;20037;-73
2022/10/01 09:28:51;;;;;;;16.08;2.45;;;;;;;;;;5059845;28;20028;-75
2022/10/01 09:31:35;;;;;;;16.05;2.92;;;;;;;;;;5054342;28;20060;-74
2022/10/01 09:34:03;;;;;;;12.25;2.10;;;;;;;;;;5058122;28;20032;-72
2022/10/01 09:36:33;;;;;;;12.20;2.00;;;;;;;;;;5057898;28;20024;-73
2022/10/01 09:39:08;;;;;;;15.38;2.45;;;;;;;;;;5056759;28;20565;-73
2022/10/01 09:41:34;;;;;;;9.15;1.90;;;;;;;;;;5052780;28;20118;-71
2022/10/01 09:44:00;;;;;;;11.93;1.90;;;;;;;;;;5049116;28;20037;-71
2022/10/01 09:46:26;;;;;;;13.98;2.13;;;;;;;;;;5053836;28;20043;-72
2022/10/01 09:49:10;;;;;;;12.20;1.58;;;;;;;;;;5055113;28;20032;-71
2022/10/01 09:51:38;;;;;;;10.95;1.95;;;;;;;;;;5055645;28;20119;-72
2022/10/01 09:54:14;;;;;;;14.68;2.78;;;;;;;;;;5057785;28;20028;-71
2022/10/01 09:56:42;;;;;;;14.00;2.53;;;;;;;;;;5063881;28;20041;-71
2022/10/01 09:59:12;;;;;;;11.45;1.90;;;;;;;;;;5061165;28;20036;-73
2022/10/01 10:01:46;;;;;;;8.65;1.90;;;;;;;;;;5055544;28;20040;-73
2022/10/01 10:04:18;;;;;;;7.68;1.65;;;;;;;;;;5060238;28;20125;-75
2022/10/01 10:06:44;;;;;;;6.88;1.23;;;;;;;;;;5061440;28;20560;-74
2022/10/01 10:09:16;;;;;;;8.50;1.23;;;;;;;;;;5077660;28;20025;-75
2022/10/01 10:11:42;;;;;;;11.10;1.40;;;;;;;;;;5058823;28;20040;-77
2022/10/01 10:14:15;;;;;;;9.18;1.50;;;;;;;;;;5054615;28;20083;-74
2022/10/01 10:16:46;;;;;;;12.80;1.88;;;;;;;;;;5055636;28;20028;-73
2022/10/01 10:19:17;;;;;;;11.30;1.70;;;;;;;;;;5058900;28;20048;-73
2022/10/01 10:21:51;;;;;;;5.90;1.17;;;;;;;;;;5054962;28;20164;-72
2022/10/01 10:24:25;;;;;;;7.28;1.63;;;;;;;;;;5072366;28;20024;-72
2022/10/01 10:26:55;;;;;;;7.90;1.40;;;;;;;;;;5055729;28;20300;-76
2022/10/01 10:29:25;;;;;;;10.48;2.33;;;;;;;;;;5057698;28;20021;-72
2022/10/01 10:31:54;;;;;;;9.48;2.80;;;;;;;;;;5059984;28;20024;-74
2022/10/01 10:34:32;;;;;;;11.02;3.85;;;;;;;;;;5057963;28;20029;-73
2022/10/01 10:36:59;;;;;;;12.57;5.15;;;;;;;;;;5057882;28;22176;-74
2022/10/01 10:39:28;;;;;;;15.57;3.63;;;;;;;;;;5054583;28;20037;-74
2022/10/01 10:41:55;;;;;;;13.57;2.90;;;;;;;;;;5061034;28;20040;-72
2022/10/01 10:44:23;;;;;;;10.93;2.20;;;;;;;;;;5057650;28;20032;-71
2022/10/01 10:46:50;;;;;;;12.40;3.08;;;;;;;;;;5052604;28;20561;-71
2022/10/01 10:49:20;;;;;;;13.75;3.55;;;;;;;;;;5055600;28;20032;-72
2022/10/01 10:51:48;;;;;;;22.45;6.20;;;;;;;;;;5064291;28;20036;-72
2022/10/01 10:54:25;;;;;;;13.07;2.28;;;;;;;;;;5055196;28;20033;-71
2022/10/01 10:57:15;;;;;;;10.95;2.10;;;;;;;;;;5053604;28;20035;-73
2022/10/01 10:59:41;;;;;;;11.60;1.88;;;;;;;;;;5053216;28;20152;-71
2022/10/01 11:02:14;;;;;;;12.60;2.60;;;;;;;;;;5055889;28;20539;-73
2022/10/01 11:04:46;;;;;;;15.65;1.90;;;;;;;;;;5054387;28;20063;-71
2022/10/01 11:07:18;;;;;;;11.73;2.30;;;;;;;;;;5053233;28;20112;-71
2022/10/01 11:09:51;;;;;;;13.85;2.20;;;;;;;;;;5056385;28;20040;-72
2022/10/01 11:12:20;;;;;;;10.80;1.90;;;;;;;;;;5056147;28;20020;-71
2022/10/01 11:15:12;;;;;;;9.20;2.00;;;;;;;;;;5054816;28;20044;-77
2022/10/01 11:17:50;;;;;;;15.10;3.25;;;;;;;;;;5048980;28;20029;-74
2022/10/01 11:20:25;;;;;;;26.85;11.32;;;;;;;;;;5065662;28;20594;-75
2022/10/01 11:22:57;;;;;;;13.68;2.75;;;;;;;;;;5069640;28;20025;-75
2022/10/01 11:25:31;;;;;;;7.45;1.85;;;;;;;;;;5063096;28;20606;-75
2022/10/01 11:28:02;;;;;;;13.63;2.78;;;;;;;;;;5059526;28;20074;-72
2022/10/01 11:30:34;;;;;;;10.77;1.35;;;;;;;;;;5071164;28;20020;-71
2022/10/01 11:33:19;;;;;;;12.20;2.20;;;;;;;;;;5063016;28;20037;-71
2022/10/01 11:36:09;;;;;;;11.40;1.60;;;;;;;;;;5066077;28;20092;-72
2022/10/01 11:38:36;;;;;;;15.23;2.92;;;;;;;;;;5068670;28;20020;-74
2022/10/01 11:41:11;;;;;;;9.55;1.92;;;;;;;;;;5069307;28;20057;-71
2022/10/01 11:43:43;;;;;;;15.80;3.00;;;;;;;;;;5058434;28;20044;-74
2022/10/01 11:46:13;;;;;;;12.57;1.90;;;;;;;;;;5064580;28;20025;-72
2022/10/01 11:48:39;;;;;;;19.48;2.17;;;;;;;;;;5071384;28;20020;-72
2022/10/01 11:51:11;;;;;;;16.00;2.25;;;;;;;;;;5069768;28;20433;-76
2022/10/01 11:53:42;;;;;;;14.77;2.08;;;;;;;;;;5070431;28;20411;-72
2022/10/01 11:59:13;;;;;;;12.23;1.98;;;;;;;;;;5070061;28;20035;-71
2022/10/01 12:01:45;;;;;;;14.70;2.25;;;;;;;;;;5067409;28;20529;-72
2022/10/01 12:04:16;;;;;;;15.57;1.80;;;;;;;;;;5070493;28;20020;-72
2022/10/01 12:07:00;;;;;;;11.05;2.40;;;;;;;;;;5069061;28;20494;-73
2022/10/01 12:09:31;;;;;;;13.15;2.45;;;;;;;;;;5068848;28;20012;-72
2022/10/01 12:12:00;;;;;;;14.75;1.80;;;;;;;;;;5070903;28;20029;-72
2022/10/01 12:14:35;;;;;;;8.13;1.45;;;;;;;;;;5065800;28;20075;-73
2022/10/01 12:17:19;;;;;;;18.15;3.42;;;;;;;;;;5062885;28;20023;-74
2022/10/01 12:19:49;;;;;;;13.45;2.50;;;;;;;;;;5067997;28;20032;-72
2022/10/01 12:22:15;;;;;;;9.25;2.13;;;;;;;;;;5060212;28;20025;-77
2022/10/01 12:24:44;;;;;;;12.60;2.30;;;;;;;;;;5071625;28;20151;-72
2022/10/01 12:27:18;;;;;;;10.88;2.08;;;;;;;;;;5068548;28;20405;-72
2022/10/01 12:29:44;;;;;;;19.17;2.28;;;;;;;;;;5069595;28;20020;-74
2022/10/01 12:32:16;;;;;;;14.20;2.45;;;;;;;;;;5061895;28;20044;-72
2022/10/01 12:34:45;;;;;;;13.70;2.85;;;;;;;;;;5071568;28;20075;-71
2022/10/01 12:37:11;;;;;;;15.27;2.58;;;;;;;;;;5060477;28;20031;-72
2022/10/01 12:39:40;;;;;;;15.18;2.85;;;;;;;;;;5069273;28;20025;-74
2022/10/01 12:42:30;;;;;;;13.25;2.20;;;17.60;99.90;;;;;;5071818;28;20043;-74
2022/10/01 12:44:59;;;;;;;9.98;2.90;;;;;;;;;;5069595;28;20060;-75
2022/10/01 12:47:42;;;;;;;22.40;4.30;;;;;;;;;;5074959;28;20028;-72
2022/10/01 12:50:15;;;;;;;10.43;2.63;;;;;;;;;;5067312;28;20330;-72
2022/10/01 12:52:47;;;;;;;14.75;2.45;;;;;;;;;;5062564;28;20016;-72
2022/10/01 12:55:16;;;;;;;17.55;3.88;;;;;;;;;;5067974;28;20055;-72
2022/10/01 12:58:00;;;;;;;14.48;2.65;;;;;;;;;;5065600;28;20103;-73
2022/10/01 13:00:30;;;;;;;10.27;1.90;;;;;;;;;;5069327;28;20404;-72
2022/10/01 13:03:04;;;;;;;8.40;1.67;;;;;;;;;;5067170;28;20395;-72
2022/10/01 13:05:48;;;;;;;6.00;1.80;;;;;;;;;;5062042;28;20047;-71
2022/10/01 13:08:17;;;;;;;5.72;1.35;;;;;;;;;;5066761;28;20074;-75
2022/10/01 13:10:52;;;;;;;7.78;1.23;;;;;;;;;;5068221;28;20030;-71
2022/10/01 13:13:26;;;;;;;6.70;1.67;;;;;;;;;;5054973;28;20449;-72
2022/10/01 13:15:56;;;;;;;6.38;2.15;;;;;;;;;;5066204;28;20099;-72
2022/10/01 13:18:31;;;;;;;47.28;24.73;;;;;;;;;;5063629;28;20414;-77
2022/10/01 13:21:05;;;;;;;14.68;3.65;;;;;;;;;;5065524;28;20139;-71
2022/10/01 13:23:31;;;;;;;9.45;1.85;;;;;;;;;;5064685;28;20039;-73
2022/10/01 13:26:18;;;;;;;16.58;1.80;;;17.60;99.90;;;;;;5068654;28;20064;-71
2022/10/01 13:28:47;;;;;;;17.80;2.67;;;;;;;;;;5061585;28;20190;-72
2022/10/01 13:31:14;;;;;;;12.63;2.03;;;;;;;;;;5064649;28;20078;-73
2022/10/01 13:33:41;;;;;;;13.05;3.47;;;;;;;;;;5070010;28;20051;-73
2022/10/01 13:36:08;;;;;;;13.82;2.45;;;;;;;;;;5063579;28;20484;-72
2022/10/01 13:38:46;;;;;;;13.02;2.47;;;;;;;;;;5059109;28;20021;-71
2022/10/01 13:41:26;;;;;;;16.15;2.53;;;;;;;;;;5068270;28;20024;-72
2022/10/01 13:43:59;;;;;;;15.45;3.33;;;;;;;;;;5066687;28;20040;-73
2022/10/01 13:46:29;;;;;;;17.10;3.50;;;;;;;;;;5068587;28;20096;-72
2022/10/01 13:48:58;;;;;;;9.45;2.03;;;;;;;;;;5069268;28;20047;-72
2022/10/01 13:51:33;;;;;;;13.50;2.17;;;;;;;;;;5064960;28;20261;-77
2022/10/01 13:54:00;;;;;;;17.75;2.63;;;;;;;;;;5069528;28;20043;-73
2022/10/01 13:56:28;;;;;;;14.50;1.98;;;;;;;;;;5065839;28;20020;-76
2022/10/01 13:58:54;;;;;;;10.85;1.92;;;;;;;;;;5068305;28;20468;-72
2022/10/01 14:01:20;;;;;;;16.65;2.35;;;;;;;;;;5065880;28;20039;-74
2022/10/01 14:03:59;;;;;;;17.88;2.38;;;;;;;;;;5050583;28;20059;-73
2022/10/01 14:06:38;;;;;;;11.10;2.58;;;;;;;;;;5053333;28;20480;-75
2022/10/01 14:09:23;;;;;;;16.38;3.20;;;;;;;;;;5053573;28;20109;-72
2022/10/01 14:17:36;;;;;;;18.27;2.42;;;;;;;;;;5058228;28;20039;-72
2022/10/01 14:20:02;;;;;;;23.38;4.82;;;;;;;;;;5058244;28;20032;-75
2022/10/01 14:22:35;;;;;;;18.50;3.42;;;;;;;;;;5061492;28;20079;-73
2022/10/01 14:25:21;;;;;;;16.13;2.53;;;;;;;;;;5064294;28;20066;-75
2022/10/01 14:28:05;;;;;;;11.30;2.58;;;;;;;;;;5062885;28;20440;-74
2022/10/01 14:30:38;;;;;;;13.07;2.35;;;;;;;;;;5068055;28;20029;-71
2022/10/01 14:33:04;;;;;;;19.88;2.85;;;;;;;;;;5062270;28;20166;-73
2022/10/01 14:35:36;;;;;;;13.32;2.47;;;;;;;;;;5055272;28;20099;-73
2022/10/01 14:38:11;;;;;;;18.30;2.35;;;;;;;;;;5060945;28;20111;-74
2022/10/01 14:40:39;;;;;;;16.95;2.78;;;;;;;;;;5064638;28;20366;-71
2022/10/01 14:43:15;;;;;;;18.20;3.40;;;;;;;;;;5066857;28;20547;-75
2022/10/01 14:45:53;;;;;;;23.17;2.90;;;;;;;;;;5067833;28;20401;-71
2022/10/01 14:48:20;;;;;;;15.52;2.63;;;;;;;;;;5061509;28;20044;-73
2022/10/01 14:50:48;;;;;;;13.23;3.05;;;;;;;;;;5067472;28;20032;-71
2022/10/01 14:53:17;;;;;;;12.65;2.75;;;;;;;;;;5065937;28;20024;-71
2022/10/01 14:55:43;;;;;;;15.82;2.20;;;;;;;;;;5070764;28;20029;-73
2022/10/01 14:58:18;;;;;;;16.55;3.45;;;;;;;;;;5067106;28;20083;-72